sensor_id;sensor_type;location;lat;lon;timestamp;temperature;humidity
69823;SHT31;57119;52.516;13.508;2023-06-04T00:00:50;9.51;72.03
69823;SHT31;57119;52.516;13.508;2023-06-04T00:03:16;9.65;70.06
69823;SHT31;57119;52.516;13.508;2023-06-04T00:05:41;9.75;69.85
69823;SHT31;57119;52.516;13.508;2023-06-04T00:08:07;9.81;69.79
69823;SHT31;57119;52.516;13.508;2023-06-04T00:10:32;9.81;69.16
69823;SHT31;57119;52.516;13.508;2023-06-04T00:12:59;9.81;70.39
69823;SHT31;57119;52.516;13.508;2023-06-04T00:15:25;9.92;69.26
69823;SHT31;57119;52.516;13.508;2023-06-04T00:17:50;9.91;69.68
69823;SHT31;57119;52.516;13.508;2023-06-04T00:20:16;9.75;70.06
69823;SHT31;57119;52.516;13.508;2023-06-04T00:22:41;9.86;71.18
69823;SHT31;57119;52.516;13.508;2023-06-04T00:25:08;9.77;71.50
69823;SHT31;57119;52.516;13.508;2023-06-04T00:27:34;9.65;71.41
69823;SHT31;57119;52.516;13.508;2023-06-04T00:30:00;9.74;73.59
69823;SHT31;57119;52.516;13.508;2023-06-04T00:32:25;9.78;72.98
69823;SHT31;57119;52.516;13.508;2023-06-04T00:34:51;9.61;72.80
69823;SHT31;57119;52.516;13.508;2023-06-04T00:37:17;9.57;73.49
69823;SHT31;57119;52.516;13.508;2023-06-04T00:39:42;9.55;73.80
69823;SHT31;57119;52.516;13.508;2023-06-04T00:42:07;9.54;74.28
69823;SHT31;57119;52.516;13.508;2023-06-04T00:44:33;9.43;74.11
69823;SHT31;57119;52.516;13.508;2023-06-04T00:46:58;9.26;73.49
69823;SHT31;57119;52.516;13.508;2023-06-04T00:49:24;9.00;73.28
69823;SHT31;57119;52.516;13.508;2023-06-04T00:51:50;8.83;73.91
69823;SHT31;57119;52.516;13.508;2023-06-04T00:54:16;8.76;74.73
69823;SHT31;57119;52.516;13.508;2023-06-04T00:56:43;8.89;75.56
69823;SHT31;57119;52.516;13.508;2023-06-04T00:59:09;8.85;76.85
69823;SHT31;57119;52.516;13.508;2023-06-04T01:01:58;8.83;76.70
69823;SHT31;57119;52.516;13.508;2023-06-04T01:04:37;8.75;76.04
69823;SHT31;57119;52.516;13.508;2023-06-04T01:07:07;8.72;77.17
69823;SHT31;57119;52.516;13.508;2023-06-04T01:09:34;8.72;77.82
69823;SHT31;57119;52.516;13.508;2023-06-04T01:12:04;8.67;77.45
69823;SHT31;57119;52.516;13.508;2023-06-04T01:14:29;8.76;77.63
69823;SHT31;57119;52.516;13.508;2023-06-04T01:17:00;8.78;77.35
69823;SHT31;57119;52.516;13.508;2023-06-04T01:21:54;8.57;78.11
69823;SHT31;57119;52.516;13.508;2023-06-04T01:24:24;8.58;78.41
69823;SHT31;57119;52.516;13.508;2023-06-04T01:26:52;8.60;78.89
69823;SHT31;57119;52.516;13.508;2023-06-04T01:29:21;8.55;79.05
69823;SHT31;57119;52.516;13.508;2023-06-04T01:31:49;8.48;79.99
69823;SHT31;57119;52.516;13.508;2023-06-04T01:34:17;8.30;78.73
69823;SHT31;57119;52.516;13.508;2023-06-04T01:36:42;8.23;79.50
69823;SHT31;57119;52.516;13.508;2023-06-04T01:39:07;8.33;79.79
69823;SHT31;57119;52.516;13.508;2023-06-04T01:41:33;8.36;79.74
69823;SHT31;57119;52.516;13.508;2023-06-04T01:43:58;8.30;80.63
69823;SHT31;57119;52.516;13.508;2023-06-04T01:46:24;8.24;80.04
69823;SHT31;57119;52.516;13.508;2023-06-04T01:48:49;8.26;79.95
69823;SHT31;57119;52.516;13.508;2023-06-04T01:51:14;8.21;80.54
69823;SHT31;57119;52.516;13.508;2023-06-04T01:53:40;8.27;80.66
69823;SHT31;57119;52.516;13.508;2023-06-04T01:56:05;8.21;81.53
69823;SHT31;57119;52.516;13.508;2023-06-04T01:58:32;8.23;80.39
69823;SHT31;57119;52.516;13.508;2023-06-04T02:00:59;8.12;80.43
69823;SHT31;57119;52.516;13.508;2023-06-04T02:03:26;7.83;80.25
69823;SHT31;57119;52.516;13.508;2023-06-04T02:05:52;8.04;80.49
69823;SHT31;57119;52.516;13.508;2023-06-04T02:08:17;8.02;80.79
69823;SHT31;57119;52.516;13.508;2023-06-04T02:10:48;7.96;81.40
69823;SHT31;57119;52.516;13.508;2023-06-04T02:13:14;7.96;81.79
69823;SHT31;57119;52.516;13.508;2023-06-04T02:15:40;7.85;81.76
69823;SHT31;57119;52.516;13.508;2023-06-04T02:18:19;7.72;81.54
69823;SHT31;57119;52.516;13.508;2023-06-04T02:20:46;7.69;82.30
69823;SHT31;57119;52.516;13.508;2023-06-04T02:23:13;7.54;82.12
69823;SHT31;57119;52.516;13.508;2023-06-04T02:25:38;7.34;82.83
69823;SHT31;57119;52.516;13.508;2023-06-04T02:28:04;7.08;82.32
69823;SHT31;57119;52.516;13.508;2023-06-04T02:30:29;7.30;83.58
69823;SHT31;57119;52.516;13.508;2023-06-04T02:32:55;7.36;83.38
69823;SHT31;57119;52.516;13.508;2023-06-04T02:35:21;7.47;82.73
69823;SHT31;57119;52.516;13.508;2023-06-04T02:37:49;7.59;82.64
69823;SHT31;57119;52.516;13.508;2023-06-04T02:40:15;7.54;83.02
69823;SHT31;57119;52.516;13.508;2023-06-04T02:42:40;7.54;83.69
69823;SHT31;57119;52.516;13.508;2023-06-04T02:45:06;7.56;83.49
69823;SHT31;57119;52.516;13.508;2023-06-04T02:47:31;7.58;83.42
69823;SHT31;57119;52.516;13.508;2023-06-04T02:49:57;7.55;83.13
69823;SHT31;57119;52.516;13.508;2023-06-04T02:52:22;7.44;83.83
69823;SHT31;57119;52.516;13.508;2023-06-04T02:54:48;7.50;84.03
69823;SHT31;57119;52.516;13.508;2023-06-04T02:57:13;7.48;83.96
69823;SHT31;57119;52.516;13.508;2023-06-04T02:59:38;7.40;83.93
69823;SHT31;57119;52.516;13.508;2023-06-04T03:02:04;7.44;84.00
69823;SHT31;57119;52.516;13.508;2023-06-04T03:04:29;7.38;84.00
69823;SHT31;57119;52.516;13.508;2023-06-04T03:07:00;7.48;83.84
69823;SHT31;57119;52.516;13.508;2023-06-04T03:09:26;7.45;83.57
69823;SHT31;57119;52.516;13.508;2023-06-04T03:11:51;7.51;83.95
69823;SHT31;57119;52.516;13.508;2023-06-04T03:14:17;7.48;84.06
69823;SHT31;57119;52.516;13.508;2023-06-04T03:16:43;7.54;83.50
69823;SHT31;57119;52.516;13.508;2023-06-04T03:19:10;7.54;83.71
69823;SHT31;57119;52.516;13.508;2023-06-04T03:21:36;7.43;83.86
69823;SHT31;57119;52.516;13.508;2023-06-04T03:24:05;7.51;83.74
69823;SHT31;57119;52.516;13.508;2023-06-04T03:26:30;7.58;83.44
69823;SHT31;57119;52.516;13.508;2023-06-04T03:28:56;7.58;83.36
69823;SHT31;57119;52.516;13.508;2023-06-04T03:31:21;7.55;84.00
69823;SHT31;57119;52.516;13.508;2023-06-04T03:33:47;7.64;84.04
69823;SHT31;57119;52.516;13.508;2023-06-04T03:36:12;7.71;83.89
69823;SHT31;57119;52.516;13.508;2023-06-04T03:38:37;7.75;84.38
69823;SHT31;57119;52.516;13.508;2023-06-04T03:41:03;7.81;84.41
69823;SHT31;57119;52.516;13.508;2023-06-04T03:43:28;7.93;83.94
69823;SHT31;57119;52.516;13.508;2023-06-04T03:45:53;8.02;83.54
69823;SHT31;57119;52.516;13.508;2023-06-04T03:48:19;8.07;83.48
69823;SHT31;57119;52.516;13.508;2023-06-04T03:50:44;8.13;83.21
69823;SHT31;57119;52.516;13.508;2023-06-04T03:53:11;8.06;83.77
69823;SHT31;57119;52.516;13.508;2023-06-04T03:55:36;8.17;83.95
69823;SHT31;57119;52.516;13.508;2023-06-04T03:58:02;8.16;84.41
69823;SHT31;57119;52.516;13.508;2023-06-04T04:00:28;8.12;84.02
69823;SHT31;57119;52.516;13.508;2023-06-04T04:02:53;8.07;84.46
69823;SHT31;57119;52.516;13.508;2023-06-04T04:05:18;8.10;84.38
69823;SHT31;57119;52.516;13.508;2023-06-04T04:07:44;8.17;84.65
69823;SHT31;57119;52.516;13.508;2023-06-04T04:10:10;8.42;84.03
69823;SHT31;57119;52.516;13.508;2023-06-04T04:12:35;8.48;84.84
69823;SHT31;57119;52.516;13.508;2023-06-04T04:15:00;8.62;84.42
69823;SHT31;57119;52.516;13.508;2023-06-04T04:17:26;8.67;84.66
69823;SHT31;57119;52.516;13.508;2023-06-04T04:19:51;8.83;83.73
69823;SHT31;57119;52.516;13.508;2023-06-04T04:22:17;9.00;83.33
69823;SHT31;57119;52.516;13.508;2023-06-04T04:24:43;9.00;83.90
69823;SHT31;57119;52.516;13.508;2023-06-04T04:27:09;9.17;84.08
69823;SHT31;57119;52.516;13.508;2023-06-04T04:29:36;9.29;83.89
69823;SHT31;57119;52.516;13.508;2023-06-04T04:32:02;9.27;82.95
69823;SHT31;57119;52.516;13.508;2023-06-04T04:34:49;9.34;83.64
69823;SHT31;57119;52.516;13.508;2023-06-04T04:37:16;9.36;83.17
69823;SHT31;57119;52.516;13.508;2023-06-04T04:39:42;9.41;82.07
69823;SHT31;57119;52.516;13.508;2023-06-04T04:42:07;9.46;81.48
69823;SHT31;57119;52.516;13.508;2023-06-04T04:44:33;9.47;80.96
69823;SHT31;57119;52.516;13.508;2023-06-04T04:46:58;9.54;81.05
69823;SHT31;57119;52.516;13.508;2023-06-04T04:49:23;9.65;81.60
69823;SHT31;57119;52.516;13.508;2023-06-04T04:51:49;9.71;81.40
69823;SHT31;57119;52.516;13.508;2023-06-04T04:54:14;9.85;81.50
69823;SHT31;57119;52.516;13.508;2023-06-04T04:56:42;9.92;80.63
69823;SHT31;57119;52.516;13.508;2023-06-04T04:59:08;10.06;79.82
69823;SHT31;57119;52.516;13.508;2023-06-04T05:01:33;10.20;79.16
69823;SHT31;57119;52.516;13.508;2023-06-04T05:03:58;10.36;77.82
69823;SHT31;57119;52.516;13.508;2023-06-04T05:06:24;10.63;76.67
69823;SHT31;57119;52.516;13.508;2023-06-04T05:08:49;10.81;76.01
69823;SHT31;57119;52.516;13.508;2023-06-04T05:11:14;10.87;76.94
69823;SHT31;57119;52.516;13.508;2023-06-04T05:13:40;10.97;77.34
69823;SHT31;57119;52.516;13.508;2023-06-04T05:16:08;11.28;75.74
69823;SHT31;57119;52.516;13.508;2023-06-04T05:18:39;11.49;74.71
69823;SHT31;57119;52.516;13.508;2023-06-04T05:21:10;11.65;74.32
69823;SHT31;57119;52.516;13.508;2023-06-04T05:23:37;11.84;73.82
69823;SHT31;57119;52.516;13.508;2023-06-04T05:26:03;11.97;72.54
69823;SHT31;57119;52.516;13.508;2023-06-04T05:28:32;12.10;71.69
69823;SHT31;57119;52.516;13.508;2023-06-04T05:30:58;12.18;72.55
69823;SHT31;57119;52.516;13.508;2023-06-04T05:33:29;12.37;70.92
69823;SHT31;57119;52.516;13.508;2023-06-04T05:35:55;12.52;71.70
69823;SHT31;57119;52.516;13.508;2023-06-04T05:38:25;12.66;70.95
69823;SHT31;57119;52.516;13.508;2023-06-04T05:40:53;12.79;71.07
69823;SHT31;57119;52.516;13.508;2023-06-04T05:43:18;12.97;70.12
69823;SHT31;57119;52.516;13.508;2023-06-04T05:45:43;13.17;70.87
69823;SHT31;57119;52.516;13.508;2023-06-04T05:48:09;13.41;70.32
69823;SHT31;57119;52.516;13.508;2023-06-04T05:50:34;13.58;69.08
69823;SHT31;57119;52.516;13.508;2023-06-04T05:53:00;13.76;69.70
69823;SHT31;57119;52.516;13.508;2023-06-04T05:55:25;13.93;68.35
69823;SHT31;57119;52.516;13.508;2023-06-04T05:57:50;14.10;66.68
69823;SHT31;57119;52.516;13.508;2023-06-04T06:00:19;14.29;67.39
69823;SHT31;57119;52.516;13.508;2023-06-04T06:02:44;14.54;65.75
69823;SHT31;57119;52.516;13.508;2023-06-04T06:05:10;14.72;64.40
69823;SHT31;57119;52.516;13.508;2023-06-04T06:07:36;14.93;63.81
69823;SHT31;57119;52.516;13.508;2023-06-04T06:10:02;14.93;61.75
69823;SHT31;57119;52.516;13.508;2023-06-04T06:12:28;15.13;61.37
69823;SHT31;57119;52.516;13.508;2023-06-04T06:14:53;15.32;61.14
69823;SHT31;57119;52.516;13.508;2023-06-04T06:17:19;15.60;61.96
69823;SHT31;57119;52.516;13.508;2023-06-04T06:19:44;15.84;61.79
69823;SHT31;57119;52.516;13.508;2023-06-04T06:22:10;16.05;62.31
69823;SHT31;57119;52.516;13.508;2023-06-04T06:24:35;16.28;60.07
69823;SHT31;57119;52.516;13.508;2023-06-04T06:27:01;16.52;59.68
69823;SHT31;57119;52.516;13.508;2023-06-04T06:29:26;16.70;58.54
69823;SHT31;57119;52.516;13.508;2023-06-04T06:31:52;16.81;58.99
69823;SHT31;57119;52.516;13.508;2023-06-04T06:34:17;16.71;56.93
69823;SHT31;57119;52.516;13.508;2023-06-04T06:36:42;16.85;56.69
69823;SHT31;57119;52.516;13.508;2023-06-04T06:39:09;17.04;56.17
69823;SHT31;57119;52.516;13.508;2023-06-04T06:41:36;17.25;55.98
69823;SHT31;57119;52.516;13.508;2023-06-04T06:44:02;17.55;56.70
69823;SHT31;57119;52.516;13.508;2023-06-04T06:46:27;17.83;57.30
69823;SHT31;57119;52.516;13.508;2023-06-04T06:48:52;18.10;54.68
69823;SHT31;57119;52.516;13.508;2023-06-04T06:51:18;18.10;53.03
69823;SHT31;57119;52.516;13.508;2023-06-04T06:53:44;18.21;52.08
69823;SHT31;57119;52.516;13.508;2023-06-04T06:56:09;18.43;51.67
69823;SHT31;57119;52.516;13.508;2023-06-04T06:58:35;18.13;50.85
69823;SHT31;57119;52.516;13.508;2023-06-04T07:01:02;18.33;50.59
69823;SHT31;57119;52.516;13.508;2023-06-04T07:03:28;18.24;49.94
69823;SHT31;57119;52.516;13.508;2023-06-04T07:05:53;18.48;50.49
69823;SHT31;57119;52.516;13.508;2023-06-04T07:08:19;18.40;49.92
69823;SHT31;57119;52.516;13.508;2023-06-04T07:10:44;18.06;49.57
69823;SHT31;57119;52.516;13.508;2023-06-04T07:13:10;18.51;49.24
69823;SHT31;57119;52.516;13.508;2023-06-04T07:15:35;18.27;47.41
69823;SHT31;57119;52.516;13.508;2023-06-04T07:18:00;18.65;47.33
69823;SHT31;57119;52.516;13.508;2023-06-04T07:20:26;18.91;48.75
69823;SHT31;57119;52.516;13.508;2023-06-04T07:22:51;19.47;48.21
69823;SHT31;57119;52.516;13.508;2023-06-04T07:25:16;19.54;48.43
69823;SHT31;57119;52.516;13.508;2023-06-04T07:27:42;19.46;48.13
69823;SHT31;57119;52.516;13.508;2023-06-04T07:30:09;19.30;47.91
69823;SHT31;57119;52.516;13.508;2023-06-04T07:32:34;19.37;48.03
69823;SHT31;57119;52.516;13.508;2023-06-04T07:35:00;19.83;49.48
69823;SHT31;57119;52.516;13.508;2023-06-04T07:37:25;19.99;47.94
69823;SHT31;57119;52.516;13.508;2023-06-04T07:39:50;20.25;46.61
69823;SHT31;57119;52.516;13.508;2023-06-04T07:42:16;20.06;45.23
69823;SHT31;57119;52.516;13.508;2023-06-04T07:44:41;19.61;45.63
69823;SHT31;57119;52.516;13.508;2023-06-04T07:47:07;20.48;45.50
69823;SHT31;57119;52.516;13.508;2023-06-04T07:49:32;21.15;43.97
69823;SHT31;57119;52.516;13.508;2023-06-04T07:51:57;21.46;43.99
69823;SHT31;57119;52.516;13.508;2023-06-04T07:54:23;21.23;41.80
69823;SHT31;57119;52.516;13.508;2023-06-04T07:56:49;22.24;41.60
69823;SHT31;57119;52.516;13.508;2023-06-04T07:59:14;22.72;44.19
69823;SHT31;57119;52.516;13.508;2023-06-04T08:01:39;23.45;40.84
69823;SHT31;57119;52.516;13.508;2023-06-04T08:04:05;24.05;41.34
69823;SHT31;57119;52.516;13.508;2023-06-04T08:06:30;24.27;42.74
69823;SHT31;57119;52.516;13.508;2023-06-04T08:08:56;24.60;41.06
69823;SHT31;57119;52.516;13.508;2023-06-04T08:11:21;25.18;40.12
69823;SHT31;57119;52.516;13.508;2023-06-04T08:13:48;25.18;40.87
69823;SHT31;57119;52.516;13.508;2023-06-04T08:16:13;24.85;40.76
69823;SHT31;57119;52.516;13.508;2023-06-04T08:18:40;24.57;38.84
69823;SHT31;57119;52.516;13.508;2023-06-04T08:21:08;24.95;40.01
69823;SHT31;57119;52.516;13.508;2023-06-04T08:23:34;25.29;39.41
69823;SHT31;57119;52.516;13.508;2023-06-04T08:26:00;24.75;38.49
69823;SHT31;57119;52.516;13.508;2023-06-04T08:28:25;25.60;37.41
69823;SHT31;57119;52.516;13.508;2023-06-04T08:30:50;24.61;39.40
69823;SHT31;57119;52.516;13.508;2023-06-04T08:33:16;25.35;40.30
69823;SHT31;57119;52.516;13.508;2023-06-04T08:35:41;25.15;38.07
69823;SHT31;57119;52.516;13.508;2023-06-04T08:38:07;25.29;38.60
69823;SHT31;57119;52.516;13.508;2023-06-04T08:40:32;24.87;38.37
69823;SHT31;57119;52.516;13.508;2023-06-04T08:43:00;25.23;38.71
69823;SHT31;57119;52.516;13.508;2023-06-04T08:45:26;26.21;38.39
69823;SHT31;57119;52.516;13.508;2023-06-04T08:47:52;26.79;37.36
69823;SHT31;57119;52.516;13.508;2023-06-04T08:50:21;25.60;36.01
69823;SHT31;57119;52.516;13.508;2023-06-04T08:52:50;25.05;37.45
69823;SHT31;57119;52.516;13.508;2023-06-04T08:55:17;25.54;36.67
69823;SHT31;57119;52.516;13.508;2023-06-04T08:57:45;27.27;37.24
69823;SHT31;57119;52.516;13.508;2023-06-04T09:00:12;27.58;36.57
69823;SHT31;57119;52.516;13.508;2023-06-04T09:02:38;26.60;36.81
69823;SHT31;57119;52.516;13.508;2023-06-04T09:05:04;27.59;37.70
69823;SHT31;57119;52.516;13.508;2023-06-04T09:07:35;27.78;38.31
69823;SHT31;57119;52.516;13.508;2023-06-04T09:10:01;26.90;36.87
69823;SHT31;57119;52.516;13.508;2023-06-04T09:12:28;27.61;37.06
69823;SHT31;57119;52.516;13.508;2023-06-04T09:14:54;28.54;36.71
69823;SHT31;57119;52.516;13.508;2023-06-04T09:17:23;29.01;37.47
69823;SHT31;57119;52.516;13.508;2023-06-04T09:19:49;28.74;36.69
69823;SHT31;57119;52.516;13.508;2023-06-04T09:22:15;28.95;36.16
69823;SHT31;57119;52.516;13.508;2023-06-04T09:24:43;28.27;35.82
69823;SHT31;57119;52.516;13.508;2023-06-04T09:27:19;28.88;35.58
69823;SHT31;57119;52.516;13.508;2023-06-04T09:29:50;28.50;35.32
69823;SHT31;57119;52.516;13.508;2023-06-04T09:32:25;29.33;35.29
69823;SHT31;57119;52.516;13.508;2023-06-04T09:34:55;29.29;35.51
69823;SHT31;57119;52.516;13.508;2023-06-04T09:37:22;27.79;34.69
69823;SHT31;57119;52.516;13.508;2023-06-04T09:39:54;28.91;35.31
69823;SHT31;57119;52.516;13.508;2023-06-04T09:42:20;29.54;34.70
69823;SHT31;57119;52.516;13.508;2023-06-04T09:44:46;30.63;33.24
69823;SHT31;57119;52.516;13.508;2023-06-04T09:47:11;29.95;34.72
69823;SHT31;57119;52.516;13.508;2023-06-04T09:49:43;27.59;34.64
69823;SHT31;57119;52.516;13.508;2023-06-04T09:52:09;27.78;34.68
69823;SHT31;57119;52.516;13.508;2023-06-04T09:54:40;28.61;34.99
69823;SHT31;57119;52.516;13.508;2023-06-04T09:57:19;28.72;33.58
69823;SHT31;57119;52.516;13.508;2023-06-04T09:59:47;27.59;35.38
69823;SHT31;57119;52.516;13.508;2023-06-04T10:02:20;27.63;35.33
69823;SHT31;57119;52.516;13.508;2023-06-04T10:04:49;28.94;34.06
69823;SHT31;57119;52.516;13.508;2023-06-04T10:07:19;27.52;34.49
69823;SHT31;57119;52.516;13.508;2023-06-04T10:09:45;28.25;34.13
69823;SHT31;57119;52.516;13.508;2023-06-04T10:12:14;27.75;34.75
69823;SHT31;57119;52.516;13.508;2023-06-04T10:14:57;27.10;36.05
69823;SHT31;57119;52.516;13.508;2023-06-04T10:17:25;28.69;34.02
69823;SHT31;57119;52.516;13.508;2023-06-04T10:19:53;28.36;33.98
69823;SHT31;57119;52.516;13.508;2023-06-04T10:22:20;29.63;33.85
69823;SHT31;57119;52.516;13.508;2023-06-04T10:24:46;30.90;32.67
69823;SHT31;57119;52.516;13.508;2023-06-04T10:27:12;28.57;34.19
69823;SHT31;57119;52.516;13.508;2023-06-04T10:29:38;28.69;35.47
69823;SHT31;57119;52.516;13.508;2023-06-04T10:32:04;30.31;33.48
69823;SHT31;57119;52.516;13.508;2023-06-04T10:34:30;29.80;34.16
69823;SHT31;57119;52.516;13.508;2023-06-04T10:36:56;29.46;33.21
69823;SHT31;57119;52.516;13.508;2023-06-04T10:39:31;30.87;32.89
69823;SHT31;57119;52.516;13.508;2023-06-04T10:42:05;31.25;34.92
69823;SHT31;57119;52.516;13.508;2023-06-04T10:44:31;32.51;31.56
69823;SHT31;57119;52.516;13.508;2023-06-04T10:46:58;30.90;35.02
69823;SHT31;57119;52.516;13.508;2023-06-04T10:49:30;31.63;32.55
69823;SHT31;57119;52.516;13.508;2023-06-04T10:51:57;32.00;31.89
69823;SHT31;57119;52.516;13.508;2023-06-04T10:54:28;29.98;32.24
69823;SHT31;57119;52.516;13.508;2023-06-04T10:56:54;30.31;34.15
69823;SHT31;57119;52.516;13.508;2023-06-04T10:59:20;30.00;33.61
69823;SHT31;57119;52.516;13.508;2023-06-04T11:01:47;30.72;32.67
69823;SHT31;57119;52.516;13.508;2023-06-04T11:04:24;30.60;34.71
69823;SHT31;57119;52.516;13.508;2023-06-04T11:07:06;31.73;34.72
69823;SHT31;57119;52.516;13.508;2023-06-04T11:09:47;31.72;32.17
69823;SHT31;57119;52.516;13.508;2023-06-04T11:12:13;32.06;34.22
69823;SHT31;57119;52.516;13.508;2023-06-04T11:14:38;32.07;34.52
69823;SHT31;57119;52.516;13.508;2023-06-04T11:17:11;32.19;32.81
69823;SHT31;57119;52.516;13.508;2023-06-04T11:19:37;32.17;31.43
69823;SHT31;57119;52.516;13.508;2023-06-04T11:22:04;32.76;31.91
69823;SHT31;57119;52.516;13.508;2023-06-04T11:24:30;31.87;31.99
69823;SHT31;57119;52.516;13.508;2023-06-04T11:26:57;30.42;32.27
69823;SHT31;57119;52.516;13.508;2023-06-04T11:29:25;30.26;33.05
69823;SHT31;57119;52.516;13.508;2023-06-04T11:31:51;29.81;33.12
69823;SHT31;57119;52.516;13.508;2023-06-04T11:34:26;29.05;33.86
69823;SHT31;57119;52.516;13.508;2023-06-04T11:36:52;30.51;33.44
69823;SHT31;57119;52.516;13.508;2023-06-04T11:39:21;29.05;33.02
69823;SHT31;57119;52.516;13.508;2023-06-04T11:41:48;29.70;35.23
69823;SHT31;57119;52.516;13.508;2023-06-04T11:44:18;31.06;32.50
69823;SHT31;57119;52.516;13.508;2023-06-04T11:46:44;31.49;33.75
69823;SHT31;57119;52.516;13.508;2023-06-04T11:49:15;30.24;32.80
69823;SHT31;57119;52.516;13.508;2023-06-04T11:51:53;31.82;31.90
69823;SHT31;57119;52.516;13.508;2023-06-04T11:54:20;32.76;32.16
69823;SHT31;57119;52.516;13.508;2023-06-04T11:56:48;31.93;30.73
69823;SHT31;57119;52.516;13.508;2023-06-04T11:59:15;33.61;30.19
69823;SHT31;57119;52.516;13.508;2023-06-04T12:01:42;32.43;31.03
69823;SHT31;57119;52.516;13.508;2023-06-04T12:04:16;32.38;30.39
69823;SHT31;57119;52.516;13.508;2023-06-04T12:06:52;32.07;30.88
69823;SHT31;57119;52.516;13.508;2023-06-04T12:09:26;33.63;30.33
69823;SHT31;57119;52.516;13.508;2023-06-04T12:11:58;34.86;30.32
69823;SHT31;57119;52.516;13.508;2023-06-04T12:14:24;33.70;31.26
69823;SHT31;57119;52.516;13.508;2023-06-04T12:17:00;34.28;31.00
69823;SHT31;57119;52.516;13.508;2023-06-04T12:19:26;34.24;31.34
69823;SHT31;57119;52.516;13.508;2023-06-04T12:22:05;34.94;30.76
69823;SHT31;57119;52.516;13.508;2023-06-04T12:24:52;34.14;31.45
69823;SHT31;57119;52.516;13.508;2023-06-04T12:27:22;34.80;30.52
69823;SHT31;57119;52.516;13.508;2023-06-04T12:30:04;34.73;30.49
69823;SHT31;57119;52.516;13.508;2023-06-04T12:32:34;33.57;30.23
69823;SHT31;57119;52.516;13.508;2023-06-04T12:35:00;34.18;31.19
69823;SHT31;57119;52.516;13.508;2023-06-04T12:37:25;33.56;30.37
69823;SHT31;57119;52.516;13.508;2023-06-04T12:39:51;34.55;29.88
69823;SHT31;57119;52.516;13.508;2023-06-04T12:42:17;35.30;29.61
69823;SHT31;57119;52.516;13.508;2023-06-04T12:44:44;35.11;28.14
69823;SHT31;57119;52.516;13.508;2023-06-04T12:47:09;33.61;29.67
69823;SHT31;57119;52.516;13.508;2023-06-04T12:49:35;33.93;30.33
69823;SHT31;57119;52.516;13.508;2023-06-04T12:52:00;34.59;30.30
69823;SHT31;57119;52.516;13.508;2023-06-04T12:54:26;33.97;30.94
69823;SHT31;57119;52.516;13.508;2023-06-04T12:56:53;35.06;29.50
69823;SHT31;57119;52.516;13.508;2023-06-04T12:59:18;34.99;29.09
69823;SHT31;57119;52.516;13.508;2023-06-04T13:01:43;34.48;29.21
69823;SHT31;57119;52.516;13.508;2023-06-04T13:04:09;34.72;29.52
69823;SHT31;57119;52.516;13.508;2023-06-04T13:06:35;34.78;29.09
69823;SHT31;57119;52.516;13.508;2023-06-04T13:09:01;33.22;31.43
69823;SHT31;57119;52.516;13.508;2023-06-04T13:11:28;34.08;29.89
69823;SHT31;57119;52.516;13.508;2023-06-04T13:13:53;34.08;28.88
69823;SHT31;57119;52.516;13.508;2023-06-04T13:16:19;32.72;29.49
69823;SHT31;57119;52.516;13.508;2023-06-04T13:18:44;35.23;31.30
69823;SHT31;57119;52.516;13.508;2023-06-04T13:21:10;33.77;29.95
69823;SHT31;57119;52.516;13.508;2023-06-04T13:23:35;33.33;29.28
69823;SHT31;57119;52.516;13.508;2023-06-04T13:26:00;34.15;29.18
69823;SHT31;57119;52.516;13.508;2023-06-04T13:28:26;32.37;29.87
69823;SHT31;57119;52.516;13.508;2023-06-04T13:30:52;33.39;30.29
69823;SHT31;57119;52.516;13.508;2023-06-04T13:33:17;33.86;29.53
69823;SHT31;57119;52.516;13.508;2023-06-04T13:35:44;34.66;29.81
69823;SHT31;57119;52.516;13.508;2023-06-04T13:38:09;32.64;29.63
69823;SHT31;57119;52.516;13.508;2023-06-04T13:40:35;33.06;29.72
69823;SHT31;57119;52.516;13.508;2023-06-04T13:43:01;32.65;29.90
69823;SHT31;57119;52.516;13.508;2023-06-04T13:45:27;33.76;29.49
69823;SHT31;57119;52.516;13.508;2023-06-04T13:47:53;31.55;30.71
69823;SHT31;57119;52.516;13.508;2023-06-04T13:50:18;32.03;30.60
69823;SHT31;57119;52.516;13.508;2023-06-04T13:52:44;32.07;30.60
69823;SHT31;57119;52.516;13.508;2023-06-04T13:55:11;30.24;31.95
69823;SHT31;57119;52.516;13.508;2023-06-04T13:57:37;30.64;32.09
69823;SHT31;57119;52.516;13.508;2023-06-04T14:00:03;30.28;31.76
69823;SHT31;57119;52.516;13.508;2023-06-04T14:02:28;31.14;31.11
69823;SHT31;57119;52.516;13.508;2023-06-04T14:04:53;33.59;31.56
69823;SHT31;57119;52.516;13.508;2023-06-04T14:07:20;33.81;31.28
69823;SHT31;57119;52.516;13.508;2023-06-04T14:09:45;33.13;29.11
69823;SHT31;57119;52.516;13.508;2023-06-04T14:12:10;33.45;29.66
69823;SHT31;57119;52.516;13.508;2023-06-04T14:14:36;32.85;29.92
69823;SHT31;57119;52.516;13.508;2023-06-04T14:17:05;33.64;30.54
69823;SHT31;57119;52.516;13.508;2023-06-04T14:19:32;33.32;29.22
69823;SHT31;57119;52.516;13.508;2023-06-04T14:21:58;30.63;30.52
69823;SHT31;57119;52.516;13.508;2023-06-04T14:24:23;32.38;31.42
69823;SHT31;57119;52.516;13.508;2023-06-04T14:26:49;33.78;30.78
69823;SHT31;57119;52.516;13.508;2023-06-04T14:29:14;33.60;29.44
69823;SHT31;57119;52.516;13.508;2023-06-04T14:31:39;31.22;30.48
69823;SHT31;57119;52.516;13.508;2023-06-04T14:34:05;32.79;31.52
69823;SHT31;57119;52.516;13.508;2023-06-04T14:36:32;34.46;32.17
69823;SHT31;57119;52.516;13.508;2023-06-04T14:38:57;34.02;29.76
69823;SHT31;57119;52.516;13.508;2023-06-04T14:41:23;34.12;31.15
69823;SHT31;57119;52.516;13.508;2023-06-04T14:43:48;34.24;30.58
69823;SHT31;57119;52.516;13.508;2023-06-04T14:46:13;34.52;30.52
69823;SHT31;57119;52.516;13.508;2023-06-04T14:48:39;33.08;29.81
69823;SHT31;57119;52.516;13.508;2023-06-04T14:51:04;32.57;30.56
69823;SHT31;57119;52.516;13.508;2023-06-04T14:53:30;32.84;31.94
69823;SHT31;57119;52.516;13.508;2023-06-04T14:55:55;33.15;31.04
69823;SHT31;57119;52.516;13.508;2023-06-04T14:58:20;29.31;33.55
69823;SHT31;57119;52.516;13.508;2023-06-04T15:00:46;28.24;33.49
69823;SHT31;57119;52.516;13.508;2023-06-04T15:03:11;29.84;33.11
69823;SHT31;57119;52.516;13.508;2023-06-04T15:05:37;32.61;30.87
69823;SHT31;57119;52.516;13.508;2023-06-04T15:08:03;32.37;31.25
69823;SHT31;57119;52.516;13.508;2023-06-04T15:10:29;33.27;31.44
69823;SHT31;57119;52.516;13.508;2023-06-04T15:12:55;34.19;31.06
69823;SHT31;57119;52.516;13.508;2023-06-04T15:15:21;33.51;30.76
69823;SHT31;57119;52.516;13.508;2023-06-04T15:17:47;33.02;30.65
69823;SHT31;57119;52.516;13.508;2023-06-04T15:20:13;33.25;30.85